Terminal Aerodrome Forecast
Issued by NWS

Home | Current Version | Previous Version | Text Only | Print | Product List | Glossary Off
Versions: 1 2 3 4 5 6 7 8 9 10 11 12 13 14 15 16 17 18 19

000
FTUS42 KMHX 212200 AAA
TAFPGV
TAF AMD
KPGV 212201Z 2122/2218 10006KT P6SM VCSH SCT015 BKN030
      TEMPO 2122/2124 -RA BKN012
     FM220000 00000KT P6SM SCT015 BKN035
     FM220800 00000KT 3SM BR SCT007 BKN150
     FM221200 08006KT P6SM SCT015 BKN035
      AMD LTD TO CLD VIS AND WIND=

USA.gov is the U.S. government's official web portal to all federal, state and local government web resources and services.